sensor_id;sensor_type;location;lat;lon;timestamp;P1;durP1;ratioP1;P2;durP2;ratioP2
69485;SDS011;56677;51.710;5.366;2023-02-11T07:46:23;7.97;;;4.97;;
69485;SDS011;56677;51.710;5.366;2023-02-11T07:48:49;6.80;;;4.40;;
69485;SDS011;56677;51.710;5.366;2023-02-11T07:51:18;8.73;;;4.93;;
69485;SDS011;56677;51.710;5.366;2023-02-11T07:53:44;6.07;;;4.15;;
69485;SDS011;56677;51.710;5.366;2023-02-11T07:56:10;5.87;;;4.23;;
69485;SDS011;56677;51.710;5.366;2023-02-11T07:58:36;7.15;;;4.43;;
69485;SDS011;56677;51.710;5.366;2023-02-11T08:01:05;8.40;;;4.53;;
69485;SDS011;56677;51.710;5.366;2023-02-11T08:03:30;7.75;;;3.95;;
69485;SDS011;56677;51.710;5.366;2023-02-11T08:05:56;6.10;;;4.23;;
69485;SDS011;56677;51.710;5.366;2023-02-11T08:08:21;6.00;;;4.07;;
69485;SDS011;56677;51.710;5.366;2023-02-11T08:10:46;6.88;;;4.38;;
69485;SDS011;56677;51.710;5.366;2023-02-11T08:13:11;6.53;;;3.97;;
69485;SDS011;56677;51.710;5.366;2023-02-11T08:15:36;8.98;;;4.25;;
69485;SDS011;56677;51.710;5.366;2023-02-11T08:18:01;7.65;;;3.88;;
69485;SDS011;56677;51.710;5.366;2023-02-11T08:20:26;5.68;;;3.53;;
69485;SDS011;56677;51.710;5.366;2023-02-11T08:22:51;7.10;;;3.90;;
69485;SDS011;56677;51.710;5.366;2023-02-11T08:25:16;6.28;;;3.92;;
69485;SDS011;56677;51.710;5.366;2023-02-11T08:27:42;5.70;;;3.63;;
69485;SDS011;56677;51.710;5.366;2023-02-11T08:30:07;8.38;;;4.18;;
69485;SDS011;56677;51.710;5.366;2023-02-11T08:32:33;7.47;;;4.23;;
69485;SDS011;56677;51.710;5.366;2023-02-11T08:34:58;6.38;;;3.60;;
69485;SDS011;56677;51.710;5.366;2023-02-11T08:37:23;7.37;;;3.90;;
69485;SDS011;56677;51.710;5.366;2023-02-11T08:39:48;7.72;;;3.58;;
69485;SDS011;56677;51.710;5.366;2023-02-11T08:42:13;6.72;;;3.60;;
69485;SDS011;56677;51.710;5.366;2023-02-11T08:44:39;4.70;;;3.38;;
69485;SDS011;56677;51.710;5.366;2023-02-11T08:47:04;7.55;;;3.50;;
69485;SDS011;56677;51.710;5.366;2023-02-11T08:49:29;5.28;;;3.20;;
69485;SDS011;56677;51.710;5.366;2023-02-11T08:51:54;8.25;;;3.50;;
69485;SDS011;56677;51.710;5.366;2023-02-11T08:54:19;8.43;;;3.60;;
69485;SDS011;56677;51.710;5.366;2023-02-11T08:56:44;7.50;;;3.60;;
69485;SDS011;56677;51.710;5.366;2023-02-11T08:59:11;5.72;;;3.28;;
69485;SDS011;56677;51.710;5.366;2023-02-11T09:01:36;12.17;;;3.70;;
69485;SDS011;56677;51.710;5.366;2023-02-11T09:04:02;11.52;;;3.53;;
69485;SDS011;56677;51.710;5.366;2023-02-11T09:06:27;7.40;;;3.57;;
69485;SDS011;56677;51.710;5.366;2023-02-11T09:08:53;8.17;;;3.70;;
69485;SDS011;56677;51.710;5.366;2023-02-11T09:11:20;9.00;;;4.00;;
69485;SDS011;56677;51.710;5.366;2023-02-11T09:13:45;7.55;;;3.70;;
69485;SDS011;56677;51.710;5.366;2023-02-11T09:16:18;7.07;;;3.70;;
69485;SDS011;56677;51.710;5.366;2023-02-11T09:18:43;9.35;;;3.80;;
69485;SDS011;56677;51.710;5.366;2023-02-11T09:21:08;8.93;;;3.40;;
69485;SDS011;56677;51.710;5.366;2023-02-11T09:23:34;8.77;;;3.50;;
69485;SDS011;56677;51.710;5.366;2023-02-11T09:26:09;12.30;;;3.83;;
69485;SDS011;56677;51.710;5.366;2023-02-11T09:28:34;9.82;;;3.85;;
69485;SDS011;56677;51.710;5.366;2023-02-11T09:31:06;9.37;;;3.53;;
69485;SDS011;56677;51.710;5.366;2023-02-11T09:33:32;9.03;;;3.73;;
69485;SDS011;56677;51.710;5.366;2023-02-11T09:36:00;10.27;;;3.67;;
69485;SDS011;56677;51.710;5.366;2023-02-11T09:38:26;7.32;;;3.35;;
69485;SDS011;56677;51.710;5.366;2023-02-11T09:40:51;8.73;;;3.60;;
69485;SDS011;56677;51.710;5.366;2023-02-11T09:43:16;9.27;;;3.67;;
69485;SDS011;56677;51.710;5.366;2023-02-11T09:45:43;14.25;;;4.00;;
69485;SDS011;56677;51.710;5.366;2023-02-11T09:48:16;13.07;;;4.00;;
69485;SDS011;56677;51.710;5.366;2023-02-11T09:50:46;8.32;;;3.47;;
69485;SDS011;56677;51.710;5.366;2023-02-11T09:53:25;12.17;;;3.50;;
69485;SDS011;56677;51.710;5.366;2023-02-11T09:55:54;8.82;;;3.63;;
69485;SDS011;56677;51.710;5.366;2023-02-11T09:58:30;9.65;;;3.70;;
69485;SDS011;56677;51.710;5.366;2023-02-11T10:03:52;12.23;;;3.35;;
69485;SDS011;56677;51.710;5.366;2023-02-11T10:09:08;8.23;;;3.35;;
69485;SDS011;56677;51.710;5.366;2023-02-11T10:11:53;10.27;;;3.30;;
69485;SDS011;56677;51.710;5.366;2023-02-11T10:17:13;7.20;;;3.40;;
69485;SDS011;56677;51.710;5.366;2023-02-11T10:19:56;11.07;;;3.23;;
69485;SDS011;56677;51.710;5.366;2023-02-11T10:24:57;8.13;;;3.40;;
69485;SDS011;56677;51.710;5.366;2023-02-11T10:27:23;10.27;;;3.30;;
69485;SDS011;56677;51.710;5.366;2023-02-11T10:29:52;8.55;;;3.30;;
69485;SDS011;56677;51.710;5.366;2023-02-11T10:32:26;11.10;;;3.30;;
69485;SDS011;56677;51.710;5.366;2023-02-11T10:34:55;11.45;;;3.30;;
69485;SDS011;56677;51.710;5.366;2023-02-11T10:37:22;15.52;;;3.90;;
69485;SDS011;56677;51.710;5.366;2023-02-11T10:39:47;7.47;;;3.13;;
69485;SDS011;56677;51.710;5.366;2023-02-11T10:42:12;7.95;;;3.50;;
69485;SDS011;56677;51.710;5.366;2023-02-11T10:44:42;8.00;;;3.40;;
69485;SDS011;56677;51.710;5.366;2023-02-11T10:47:16;10.88;;;3.33;;
69485;SDS011;56677;51.710;5.366;2023-02-11T10:49:43;9.20;;;3.30;;
69485;SDS011;56677;51.710;5.366;2023-02-11T10:54:37;9.43;;;2.92;;
69485;SDS011;56677;51.710;5.366;2023-02-11T10:57:02;9.68;;;2.85;;
69485;SDS011;56677;51.710;5.366;2023-02-11T10:59:28;9.07;;;3.23;;
69485;SDS011;56677;51.710;5.366;2023-02-11T11:02:01;10.13;;;4.03;;
69485;SDS011;56677;51.710;5.366;2023-02-11T11:04:32;8.55;;;3.58;;
69485;SDS011;56677;51.710;5.366;2023-02-11T11:07:17;7.90;;;3.47;;
69485;SDS011;56677;51.710;5.366;2023-02-11T11:09:47;9.45;;;2.95;;
69485;SDS011;56677;51.710;5.366;2023-02-11T11:12:23;9.43;;;2.90;;
69485;SDS011;56677;51.710;5.366;2023-02-11T11:14:55;8.50;;;3.80;;
69485;SDS011;56677;51.710;5.366;2023-02-11T11:17:21;7.75;;;3.40;;
69485;SDS011;56677;51.710;5.366;2023-02-11T11:19:46;13.83;;;3.50;;
69485;SDS011;56677;51.710;5.366;2023-02-11T11:22:18;11.15;;;3.50;;
69485;SDS011;56677;51.710;5.366;2023-02-11T11:24:44;6.93;;;2.90;;
69485;SDS011;56677;51.710;5.366;2023-02-11T11:27:16;8.87;;;2.63;;
69485;SDS011;56677;51.710;5.366;2023-02-11T11:29:42;7.57;;;3.35;;
69485;SDS011;56677;51.710;5.366;2023-02-11T11:32:15;10.57;;;3.43;;
69485;SDS011;56677;51.710;5.366;2023-02-11T11:34:43;8.77;;;3.30;;
69485;SDS011;56677;51.710;5.366;2023-02-11T11:37:25;9.30;;;2.92;;
69485;SDS011;56677;51.710;5.366;2023-02-11T11:40:16;6.18;;;3.05;;
69485;SDS011;56677;51.710;5.366;2023-02-11T11:42:39;8.50;;;2.90;;
69485;SDS011;56677;51.710;5.366;2023-02-11T11:52:55;6.60;;;2.78;;
69485;SDS011;56677;51.710;5.366;2023-02-11T11:55:21;8.13;;;2.90;;
69485;SDS011;56677;51.710;5.366;2023-02-11T11:57:48;7.00;;;2.83;;
69485;SDS011;56677;51.710;5.366;2023-02-11T12:00:15;5.83;;;2.97;;
69485;SDS011;56677;51.710;5.366;2023-02-11T12:02:48;6.07;;;2.83;;
69485;SDS011;56677;51.710;5.366;2023-02-11T12:05:24;8.25;;;3.85;;
69485;SDS011;56677;51.710;5.366;2023-02-11T12:08:35;7.05;;;3.13;;
69485;SDS011;56677;51.710;5.366;2023-02-11T12:18:49;6.03;;;2.70;;
69485;SDS011;56677;51.710;5.366;2023-02-11T12:26:18;7.00;;;2.63;;
69485;SDS011;56677;51.710;5.366;2023-02-11T12:28:52;5.95;;;2.72;;
69485;SDS011;56677;51.710;5.366;2023-02-11T12:34:09;7.30;;;3.00;;
69485;SDS011;56677;51.710;5.366;2023-02-11T12:36:50;7.78;;;2.65;;
69485;SDS011;56677;51.710;5.366;2023-02-11T12:54:55;5.45;;;2.75;;
69485;SDS011;56677;51.710;5.366;2023-02-11T12:57:22;6.97;;;3.10;;
69485;SDS011;56677;51.710;5.366;2023-02-11T13:07:49;4.50;;;2.55;;
69485;SDS011;56677;51.710;5.366;2023-02-11T13:12:40;8.98;;;2.72;;
69485;SDS011;56677;51.710;5.366;2023-02-11T13:15:08;7.07;;;2.60;;
69485;SDS011;56677;51.710;5.366;2023-02-11T13:17:38;6.82;;;2.95;;
69485;SDS011;56677;51.710;5.366;2023-02-11T13:20:17;6.57;;;2.97;;
69485;SDS011;56677;51.710;5.366;2023-02-11T13:22:47;7.25;;;2.60;;
69485;SDS011;56677;51.710;5.366;2023-02-11T13:25:28;7.60;;;2.70;;
69485;SDS011;56677;51.710;5.366;2023-02-11T13:27:59;5.47;;;2.60;;
69485;SDS011;56677;51.710;5.366;2023-02-11T13:30:34;8.13;;;2.92;;
69485;SDS011;56677;51.710;5.366;2023-02-11T13:33:05;6.33;;;3.03;;
69485;SDS011;56677;51.710;5.366;2023-02-11T13:35:37;5.75;;;2.80;;
69485;SDS011;56677;51.710;5.366;2023-02-11T13:38:16;5.07;;;2.88;;
69485;SDS011;56677;51.710;5.366;2023-02-11T13:40:42;7.15;;;2.72;;
69485;SDS011;56677;51.710;5.366;2023-02-11T13:43:18;5.63;;;2.50;;
69485;SDS011;56677;51.710;5.366;2023-02-11T13:45:47;6.30;;;3.20;;
69485;SDS011;56677;51.710;5.366;2023-02-11T13:48:20;4.95;;;2.60;;
69485;SDS011;56677;51.710;5.366;2023-02-11T13:50:47;7.57;;;3.37;;
69485;SDS011;56677;51.710;5.366;2023-02-11T13:53:13;6.88;;;2.97;;
69485;SDS011;56677;51.710;5.366;2023-02-11T13:55:40;4.55;;;2.63;;
69485;SDS011;56677;51.710;5.366;2023-02-11T14:05:34;9.40;;;2.60;;
69485;SDS011;56677;51.710;5.366;2023-02-11T14:13:19;5.53;;;2.88;;
69485;SDS011;56677;51.710;5.366;2023-02-11T14:15:45;8.20;;;2.95;;
69485;SDS011;56677;51.710;5.366;2023-02-11T14:20:59;5.57;;;3.00;;
69485;SDS011;56677;51.710;5.366;2023-02-11T14:23:26;12.57;;;3.03;;
69485;SDS011;56677;51.710;5.366;2023-02-11T14:25:58;6.70;;;3.10;;
69485;SDS011;56677;51.710;5.366;2023-02-11T14:28:25;6.95;;;3.10;;
69485;SDS011;56677;51.710;5.366;2023-02-11T14:30:57;6.22;;;3.10;;
69485;SDS011;56677;51.710;5.366;2023-02-11T14:36:17;5.93;;;3.05;;
69485;SDS011;56677;51.710;5.366;2023-02-11T14:38:51;8.02;;;3.53;;
69485;SDS011;56677;51.710;5.366;2023-02-11T14:41:31;7.05;;;3.30;;
69485;SDS011;56677;51.710;5.366;2023-02-11T14:44:01;5.43;;;2.92;;
69485;SDS011;56677;51.710;5.366;2023-02-11T14:46:28;6.30;;;3.00;;
69485;SDS011;56677;51.710;5.366;2023-02-11T14:48:53;6.13;;;2.47;;
69485;SDS011;56677;51.710;5.366;2023-02-11T14:51:23;5.40;;;2.93;;
69485;SDS011;56677;51.710;5.366;2023-02-11T14:53:50;6.50;;;3.00;;
69485;SDS011;56677;51.710;5.366;2023-02-11T14:56:17;7.05;;;2.63;;
69485;SDS011;56677;51.710;5.366;2023-02-11T14:58:49;6.35;;;3.10;;
69485;SDS011;56677;51.710;5.366;2023-02-11T15:01:21;8.70;;;3.27;;
69485;SDS011;56677;51.710;5.366;2023-02-11T15:03:48;4.30;;;2.47;;
69485;SDS011;56677;51.710;5.366;2023-02-11T15:06:23;6.00;;;2.83;;
69485;SDS011;56677;51.710;5.366;2023-02-11T15:08:50;6.55;;;3.00;;
69485;SDS011;56677;51.710;5.366;2023-02-11T15:11:17;4.67;;;2.67;;
69485;SDS011;56677;51.710;5.366;2023-02-11T15:13:43;7.43;;;3.05;;
69485;SDS011;56677;51.710;5.366;2023-02-11T15:16:08;7.95;;;3.33;;
69485;SDS011;56677;51.710;5.366;2023-02-11T15:18:38;6.50;;;2.97;;
69485;SDS011;56677;51.710;5.366;2023-02-11T15:21:04;8.27;;;2.92;;
69485;SDS011;56677;51.710;5.366;2023-02-11T15:23:30;9.90;;;3.13;;
69485;SDS011;56677;51.710;5.366;2023-02-11T15:25:55;5.87;;;2.80;;
69485;SDS011;56677;51.710;5.366;2023-02-11T15:28:21;5.65;;;2.72;;
69485;SDS011;56677;51.710;5.366;2023-02-11T15:30:54;5.78;;;2.50;;
69485;SDS011;56677;51.710;5.366;2023-02-11T15:33:20;6.38;;;3.15;;
69485;SDS011;56677;51.710;5.366;2023-02-11T15:35:45;6.47;;;3.05;;
69485;SDS011;56677;51.710;5.366;2023-02-11T15:38:11;6.18;;;2.80;;
69485;SDS011;56677;51.710;5.366;2023-02-11T15:40:36;5.17;;;2.70;;
69485;SDS011;56677;51.710;5.366;2023-02-11T15:43:02;5.10;;;2.40;;
69485;SDS011;56677;51.710;5.366;2023-02-11T15:45:29;5.43;;;2.78;;
69485;SDS011;56677;51.710;5.366;2023-02-11T15:47:56;4.93;;;2.60;;
69485;SDS011;56677;51.710;5.366;2023-02-11T15:50:32;6.97;;;2.83;;
69485;SDS011;56677;51.710;5.366;2023-02-11T15:52:59;5.13;;;2.63;;
69485;SDS011;56677;51.710;5.366;2023-02-11T15:55:24;6.55;;;2.40;;
69485;SDS011;56677;51.710;5.366;2023-02-11T15:57:52;6.80;;;2.90;;
69485;SDS011;56677;51.710;5.366;2023-02-11T16:00:19;5.70;;;3.08;;
69485;SDS011;56677;51.710;5.366;2023-02-11T16:02:44;6.30;;;3.15;;
69485;SDS011;56677;51.710;5.366;2023-02-11T16:08:12;5.28;;;2.90;;
69485;SDS011;56677;51.710;5.366;2023-02-11T16:10:52;6.20;;;2.92;;
69485;SDS011;56677;51.710;5.366;2023-02-11T16:13:17;6.07;;;2.63;;
69485;SDS011;56677;51.710;5.366;2023-02-11T16:15:44;6.03;;;2.50;;
69485;SDS011;56677;51.710;5.366;2023-02-11T16:20:47;6.07;;;2.65;;
69485;SDS011;56677;51.710;5.366;2023-02-11T16:23:16;5.60;;;2.72;;
69485;SDS011;56677;51.710;5.366;2023-02-11T16:25:44;5.90;;;2.60;;
69485;SDS011;56677;51.710;5.366;2023-02-11T16:28:11;5.90;;;2.92;;
69485;SDS011;56677;51.710;5.366;2023-02-11T16:30:37;4.95;;;2.92;;
69485;SDS011;56677;51.710;5.366;2023-02-11T16:33:02;5.90;;;2.60;;
69485;SDS011;56677;51.710;5.366;2023-02-11T16:35:28;4.60;;;2.37;;
69485;SDS011;56677;51.710;5.366;2023-02-11T16:37:53;6.82;;;2.80;;
69485;SDS011;56677;51.710;5.366;2023-02-11T16:40:18;7.13;;;2.40;;
69485;SDS011;56677;51.710;5.366;2023-02-11T16:42:43;8.20;;;2.67;;
69485;SDS011;56677;51.710;5.366;2023-02-11T16:45:08;6.22;;;2.58;;
69485;SDS011;56677;51.710;5.366;2023-02-11T16:47:34;6.07;;;2.80;;
69485;SDS011;56677;51.710;5.366;2023-02-11T16:49:59;4.87;;;2.63;;
69485;SDS011;56677;51.710;5.366;2023-02-11T16:52:24;6.13;;;2.53;;
69485;SDS011;56677;51.710;5.366;2023-02-11T16:54:50;7.75;;;2.60;;
69485;SDS011;56677;51.710;5.366;2023-02-11T16:59:43;4.05;;;2.42;;
69485;SDS011;56677;51.710;5.366;2023-02-11T17:02:13;6.87;;;2.70;;
69485;SDS011;56677;51.710;5.366;2023-02-11T17:04:39;5.97;;;2.60;;
69485;SDS011;56677;51.710;5.366;2023-02-11T17:07:04;7.00;;;2.73;;
69485;SDS011;56677;51.710;5.366;2023-02-11T17:09:29;6.18;;;2.63;;
69485;SDS011;56677;51.710;5.366;2023-02-11T17:11:55;6.55;;;2.92;;
69485;SDS011;56677;51.710;5.366;2023-02-11T17:14:20;6.93;;;2.80;;
69485;SDS011;56677;51.710;5.366;2023-02-11T17:16:45;8.38;;;3.00;;
69485;SDS011;56677;51.710;5.366;2023-02-11T17:19:11;6.03;;;3.17;;
69485;SDS011;56677;51.710;5.366;2023-02-11T17:21:39;6.50;;;3.35;;
69485;SDS011;56677;51.710;5.366;2023-02-11T17:24:04;6.53;;;3.08;;
69485;SDS011;56677;51.710;5.366;2023-02-11T17:26:29;6.50;;;3.40;;
69485;SDS011;56677;51.710;5.366;2023-02-11T17:28:54;6.93;;;3.28;;
69485;SDS011;56677;51.710;5.366;2023-02-11T17:31:19;5.15;;;2.90;;
69485;SDS011;56677;51.710;5.366;2023-02-11T17:33:44;6.85;;;2.75;;
69485;SDS011;56677;51.710;5.366;2023-02-11T17:36:10;5.50;;;2.70;;
69485;SDS011;56677;51.710;5.366;2023-02-11T17:38:35;5.60;;;3.10;;
69485;SDS011;56677;51.710;5.366;2023-02-11T17:41:01;6.00;;;3.20;;
69485;SDS011;56677;51.710;5.366;2023-02-11T17:43:26;7.37;;;3.07;;
69485;SDS011;56677;51.710;5.366;2023-02-11T17:45:51;7.93;;;3.23;;
69485;SDS011;56677;51.710;5.366;2023-02-11T17:48:16;5.05;;;2.38;;
69485;SDS011;56677;51.710;5.366;2023-02-11T17:50:41;8.75;;;3.00;;
69485;SDS011;56677;51.710;5.366;2023-02-11T17:53:06;7.10;;;3.35;;
69485;SDS011;56677;51.710;5.366;2023-02-11T17:55:32;4.82;;;2.45;;
69485;SDS011;56677;51.710;5.366;2023-02-11T17:57:57;6.82;;;3.00;;
69485;SDS011;56677;51.710;5.366;2023-02-11T18:00:22;5.23;;;2.80;;
69485;SDS011;56677;51.710;5.366;2023-02-11T18:02:48;5.27;;;2.53;;
69485;SDS011;56677;51.710;5.366;2023-02-11T18:05:13;8.02;;;2.60;;
69485;SDS011;56677;51.710;5.366;2023-02-11T18:07:38;4.63;;;2.80;;
69485;SDS011;56677;51.710;5.366;2023-02-11T18:10:04;5.65;;;2.83;;
69485;SDS011;56677;51.710;5.366;2023-02-11T18:12:29;5.68;;;2.90;;
69485;SDS011;56677;51.710;5.366;2023-02-11T18:14:54;5.37;;;2.57;;
69485;SDS011;56677;51.710;5.366;2023-02-11T18:17:20;5.72;;;2.90;;
69485;SDS011;56677;51.710;5.366;2023-02-11T18:19:45;5.40;;;2.80;;
69485;SDS011;56677;51.710;5.366;2023-02-11T18:22:10;10.53;;;2.70;;
69485;SDS011;56677;51.710;5.366;2023-02-11T18:24:35;6.15;;;2.35;;
69485;SDS011;56677;51.710;5.366;2023-02-11T18:27:01;5.32;;;2.75;;
69485;SDS011;56677;51.710;5.366;2023-02-11T18:29:26;5.67;;;2.27;;
69485;SDS011;56677;51.710;5.366;2023-02-11T18:31:53;5.40;;;2.90;;
69485;SDS011;56677;51.710;5.366;2023-02-11T18:34:18;4.95;;;2.58;;
69485;SDS011;56677;51.710;5.366;2023-02-11T18:36:43;6.72;;;2.85;;
69485;SDS011;56677;51.710;5.366;2023-02-11T18:39:08;4.78;;;2.38;;
69485;SDS011;56677;51.710;5.366;2023-02-11T18:41:33;5.85;;;2.92;;
69485;SDS011;56677;51.710;5.366;2023-02-11T18:43:58;7.37;;;2.50;;
69485;SDS011;56677;51.710;5.366;2023-02-11T18:46:24;5.60;;;2.10;;
69485;SDS011;56677;51.710;5.366;2023-02-11T18:48:49;5.27;;;2.50;;
69485;SDS011;56677;51.710;5.366;2023-02-11T18:51:15;4.75;;;2.30;;
69485;SDS011;56677;51.710;5.366;2023-02-11T18:53:41;6.10;;;2.78;;
69485;SDS011;56677;51.710;5.366;2023-02-11T18:56:07;5.43;;;2.40;;
69485;SDS011;56677;51.710;5.366;2023-02-11T18:58:32;5.25;;;2.45;;
69485;SDS011;56677;51.710;5.366;2023-02-11T19:00:57;6.85;;;2.70;;
69485;SDS011;56677;51.710;5.366;2023-02-11T19:03:23;4.88;;;2.60;;
69485;SDS011;56677;51.710;5.366;2023-02-11T19:05:48;5.32;;;2.78;;
69485;SDS011;56677;51.710;5.366;2023-02-11T19:08:13;6.20;;;3.00;;
69485;SDS011;56677;51.710;5.366;2023-02-11T19:10:42;6.57;;;2.50;;
69485;SDS011;56677;51.710;5.366;2023-02-11T19:13:08;6.18;;;2.70;;
69485;SDS011;56677;51.710;5.366;2023-02-11T19:15:33;4.87;;;2.47;;
69485;SDS011;56677;51.710;5.366;2023-02-11T19:17:58;7.55;;;2.95;;
69485;SDS011;56677;51.710;5.366;2023-02-11T19:20:23;5.55;;;2.65;;
69485;SDS011;56677;51.710;5.366;2023-02-11T19:22:48;5.18;;;2.85;;
69485;SDS011;56677;51.710;5.366;2023-02-11T19:25:13;6.10;;;3.05;;
69485;SDS011;56677;51.710;5.366;2023-02-11T19:27:38;6.90;;;2.97;;
69485;SDS011;56677;51.710;5.366;2023-02-11T19:30:04;5.10;;;3.20;;
69485;SDS011;56677;51.710;5.366;2023-02-11T19:32:29;5.47;;;2.47;;
69485;SDS011;56677;51.710;5.366;2023-02-11T19:34:54;6.75;;;2.83;;
69485;SDS011;56677;51.710;5.366;2023-02-11T19:37:19;6.07;;;2.80;;
69485;SDS011;56677;51.710;5.366;2023-02-11T19:39:44;5.43;;;2.33;;
69485;SDS011;56677;51.710;5.366;2023-02-11T19:42:10;5.33;;;2.80;;
69485;SDS011;56677;51.710;5.366;2023-02-11T19:44:35;5.72;;;3.00;;
69485;SDS011;56677;51.710;5.366;2023-02-11T19:47:00;5.05;;;2.75;;
69485;SDS011;56677;51.710;5.366;2023-02-11T19:49:25;4.93;;;2.83;;
69485;SDS011;56677;51.710;5.366;2023-02-11T19:51:51;6.50;;;2.95;;
69485;SDS011;56677;51.710;5.366;2023-02-11T19:54:17;5.85;;;2.83;;
69485;SDS011;56677;51.710;5.366;2023-02-11T19:56:42;6.00;;;2.80;;
69485;SDS011;56677;51.710;5.366;2023-02-11T19:59:07;5.83;;;3.07;;
69485;SDS011;56677;51.710;5.366;2023-02-11T20:01:32;4.90;;;2.80;;
69485;SDS011;56677;51.710;5.366;2023-02-11T20:03:57;6.93;;;2.63;;
69485;SDS011;56677;51.710;5.366;2023-02-11T20:06:24;6.55;;;2.95;;
69485;SDS011;56677;51.710;5.366;2023-02-11T20:08:57;5.90;;;2.53;;
69485;SDS011;56677;51.710;5.366;2023-02-11T20:11:22;7.70;;;2.30;;
69485;SDS011;56677;51.710;5.366;2023-02-11T20:13:47;7.40;;;2.67;;
69485;SDS011;56677;51.710;5.366;2023-02-11T20:16:13;5.00;;;2.40;;
69485;SDS011;56677;51.710;5.366;2023-02-11T20:18:38;8.20;;;3.47;;
69485;SDS011;56677;51.710;5.366;2023-02-11T20:21:04;6.17;;;2.70;;
69485;SDS011;56677;51.710;5.366;2023-02-11T20:23:29;5.83;;;2.63;;
69485;SDS011;56677;51.710;5.366;2023-02-11T20:25:55;6.70;;;2.97;;
69485;SDS011;56677;51.710;5.366;2023-02-11T20:28:20;5.78;;;2.53;;
69485;SDS011;56677;51.710;5.366;2023-02-11T20:30:53;6.87;;;2.77;;
69485;SDS011;56677;51.710;5.366;2023-02-11T20:33:18;5.85;;;2.80;;
69485;SDS011;56677;51.710;5.366;2023-02-11T20:35:43;6.63;;;2.92;;
69485;SDS011;56677;51.710;5.366;2023-02-11T20:38:09;6.15;;;2.78;;
69485;SDS011;56677;51.710;5.366;2023-02-11T20:40:34;5.28;;;2.67;;
69485;SDS011;56677;51.710;5.366;2023-02-11T20:42:59;6.57;;;2.80;;
69485;SDS011;56677;51.710;5.366;2023-02-11T20:45:24;6.13;;;2.70;;
69485;SDS011;56677;51.710;5.366;2023-02-11T20:47:49;6.50;;;2.78;;
69485;SDS011;56677;51.710;5.366;2023-02-11T20:50:14;6.53;;;3.10;;
69485;SDS011;56677;51.710;5.366;2023-02-11T20:52:39;5.95;;;2.50;;
69485;SDS011;56677;51.710;5.366;2023-02-11T20:55:04;4.82;;;2.58;;
69485;SDS011;56677;51.710;5.366;2023-02-11T20:57:29;5.53;;;2.70;;
69485;SDS011;56677;51.710;5.366;2023-02-11T20:59:55;7.07;;;2.80;;
69485;SDS011;56677;51.710;5.366;2023-02-11T21:02:20;5.90;;;2.97;;
69485;SDS011;56677;51.710;5.366;2023-02-11T21:04:45;6.25;;;2.85;;
69485;SDS011;56677;51.710;5.366;2023-02-11T21:07:10;11.40;;;3.13;;
69485;SDS011;56677;51.710;5.366;2023-02-11T21:09:35;5.35;;;2.70;;
69485;SDS011;56677;51.710;5.366;2023-02-11T21:12:00;6.05;;;2.67;;
69485;SDS011;56677;51.710;5.366;2023-02-11T21:14:25;6.28;;;3.00;;
69485;SDS011;56677;51.710;5.366;2023-02-11T21:16:51;5.93;;;3.23;;
69485;SDS011;56677;51.710;5.366;2023-02-11T21:19:16;5.55;;;2.85;;
69485;SDS011;56677;51.710;5.366;2023-02-11T21:21:41;5.40;;;2.77;;
69485;SDS011;56677;51.710;5.366;2023-02-11T21:24:07;5.13;;;2.67;;
69485;SDS011;56677;51.710;5.366;2023-02-11T21:26:33;5.68;;;2.60;;
69485;SDS011;56677;51.710;5.366;2023-02-11T21:28:58;5.83;;;3.00;;
69485;SDS011;56677;51.710;5.366;2023-02-11T21:31:24;7.85;;;3.03;;
69485;SDS011;56677;51.710;5.366;2023-02-11T21:33:50;6.38;;;2.90;;
69485;SDS011;56677;51.710;5.366;2023-02-11T21:36:15;5.70;;;2.73;;
69485;SDS011;56677;51.710;5.366;2023-02-11T21:38:41;5.80;;;2.90;;
69485;SDS011;56677;51.710;5.366;2023-02-11T21:41:06;5.55;;;2.58;;
69485;SDS011;56677;51.710;5.366;2023-02-11T21:43:31;5.97;;;2.93;;
69485;SDS011;56677;51.710;5.366;2023-02-11T21:45:57;4.73;;;2.63;;
69485;SDS011;56677;51.710;5.366;2023-02-11T21:48:22;5.70;;;2.65;;
69485;SDS011;56677;51.710;5.366;2023-02-11T21:50:47;6.47;;;3.13;;
69485;SDS011;56677;51.710;5.366;2023-02-11T21:53:12;6.45;;;3.42;;
69485;SDS011;56677;51.710;5.366;2023-02-11T21:55:38;7.00;;;3.53;;
69485;SDS011;56677;51.710;5.366;2023-02-11T21:58:03;6.33;;;2.70;;
69485;SDS011;56677;51.710;5.366;2023-02-11T22:00:28;5.77;;;2.80;;
69485;SDS011;56677;51.710;5.366;2023-02-11T22:02:53;7.63;;;3.33;;
69485;SDS011;56677;51.710;5.366;2023-02-11T22:05:18;5.78;;;2.83;;
69485;SDS011;56677;51.710;5.366;2023-02-11T22:07:44;6.28;;;2.92;;
69485;SDS011;56677;51.710;5.366;2023-02-11T22:10:09;6.25;;;3.05;;
69485;SDS011;56677;51.710;5.366;2023-02-11T22:12:34;6.50;;;2.60;;
69485;SDS011;56677;51.710;5.366;2023-02-11T22:14:59;5.47;;;2.70;;
69485;SDS011;56677;51.710;5.366;2023-02-11T22:17:24;5.50;;;2.73;;
69485;SDS011;56677;51.710;5.366;2023-02-11T22:19:49;6.53;;;3.15;;
69485;SDS011;56677;51.710;5.366;2023-02-11T22:22:14;6.47;;;2.78;;
69485;SDS011;56677;51.710;5.366;2023-02-11T22:24:39;5.10;;;2.45;;
69485;SDS011;56677;51.710;5.366;2023-02-11T22:27:05;4.82;;;2.70;;
69485;SDS011;56677;51.710;5.366;2023-02-11T22:29:30;6.65;;;3.15;;
69485;SDS011;56677;51.710;5.366;2023-02-11T22:31:55;4.88;;;2.80;;
69485;SDS011;56677;51.710;5.366;2023-02-11T22:34:20;5.43;;;3.15;;
69485;SDS011;56677;51.710;5.366;2023-02-11T22:36:45;5.13;;;2.60;;
69485;SDS011;56677;51.710;5.366;2023-02-11T22:39:11;5.90;;;2.88;;
69485;SDS011;56677;51.710;5.366;2023-02-11T22:41:36;5.60;;;2.77;;
69485;SDS011;56677;51.710;5.366;2023-02-11T22:44:02;5.65;;;3.00;;
69485;SDS011;56677;51.710;5.366;2023-02-11T22:46:27;5.38;;;2.88;;
69485;SDS011;56677;51.710;5.366;2023-02-11T22:48:52;6.25;;;3.20;;
69485;SDS011;56677;51.710;5.366;2023-02-11T22:51:18;5.25;;;2.90;;
69485;SDS011;56677;51.710;5.366;2023-02-11T22:53:47;5.47;;;2.80;;
69485;SDS011;56677;51.710;5.366;2023-02-11T22:56:12;5.78;;;3.17;;
69485;SDS011;56677;51.710;5.366;2023-02-11T22:58:37;5.38;;;2.63;;
69485;SDS011;56677;51.710;5.366;2023-02-11T23:01:03;5.13;;;2.63;;
69485;SDS011;56677;51.710;5.366;2023-02-11T23:03:28;4.03;;;2.33;;
69485;SDS011;56677;51.710;5.366;2023-02-11T23:05:53;4.78;;;3.03;;
69485;SDS011;56677;51.710;5.366;2023-02-11T23:08:21;4.80;;;2.70;;
